sensor_id;sensor_type;location;lat;lon;timestamp;P1;durP1;ratioP1;P2;durP2;ratioP2
28724;SDS011;43472;48.980;9.646;2023-06-10T00:00:37;8.85;;;6.18;;
28724;SDS011;43472;48.980;9.646;2023-06-10T00:05:39;7.93;;;5.97;;
28724;SDS011;43472;48.980;9.646;2023-06-10T00:10:41;9.10;;;7.18;;
28724;SDS011;43472;48.980;9.646;2023-06-10T00:15:43;7.97;;;6.97;;
28724;SDS011;43472;48.980;9.646;2023-06-10T00:20:45;7.68;;;6.20;;
28724;SDS011;43472;48.980;9.646;2023-06-10T00:25:47;7.85;;;5.70;;
28724;SDS011;43472;48.980;9.646;2023-06-10T00:30:49;8.40;;;5.68;;
28724;SDS011;43472;48.980;9.646;2023-06-10T00:35:51;7.05;;;6.32;;
28724;SDS011;43472;48.980;9.646;2023-06-10T00:40:53;6.47;;;5.78;;
28724;SDS011;43472;48.980;9.646;2023-06-10T00:45:55;9.27;;;6.35;;
28724;SDS011;43472;48.980;9.646;2023-06-10T00:50:57;6.53;;;5.78;;
28724;SDS011;43472;48.980;9.646;2023-06-10T00:56:00;6.40;;;5.40;;
28724;SDS011;43472;48.980;9.646;2023-06-10T01:01:03;7.53;;;5.65;;
28724;SDS011;43472;48.980;9.646;2023-06-10T01:06:18;8.95;;;5.03;;
28724;SDS011;43472;48.980;9.646;2023-06-10T01:11:49;13.38;;;8.32;;
28724;SDS011;43472;48.980;9.646;2023-06-10T01:16:59;13.52;;;8.95;;
28724;SDS011;43472;48.980;9.646;2023-06-10T01:22:02;10.52;;;7.13;;
28724;SDS011;43472;48.980;9.646;2023-06-10T01:27:05;8.27;;;6.78;;
28724;SDS011;43472;48.980;9.646;2023-06-10T01:32:15;9.00;;;7.22;;
28724;SDS011;43472;48.980;9.646;2023-06-10T01:37:22;12.68;;;7.65;;
28724;SDS011;43472;48.980;9.646;2023-06-10T01:42:27;9.65;;;7.45;;
28724;SDS011;43472;48.980;9.646;2023-06-10T01:47:30;15.77;;;8.23;;
28724;SDS011;43472;48.980;9.646;2023-06-10T01:52:32;9.05;;;7.30;;
28724;SDS011;43472;48.980;9.646;2023-06-10T01:57:34;11.30;;;8.48;;
28724;SDS011;43472;48.980;9.646;2023-06-10T02:02:36;14.13;;;7.97;;
28724;SDS011;43472;48.980;9.646;2023-06-10T02:07:38;10.85;;;8.57;;
28724;SDS011;43472;48.980;9.646;2023-06-10T02:12:40;17.88;;;12.02;;
28724;SDS011;43472;48.980;9.646;2023-06-10T02:17:42;9.27;;;7.85;;
28724;SDS011;43472;48.980;9.646;2023-06-10T02:22:44;10.75;;;7.80;;
28724;SDS011;43472;48.980;9.646;2023-06-10T02:27:45;8.45;;;7.00;;
28724;SDS011;43472;48.980;9.646;2023-06-10T02:32:47;9.02;;;7.43;;
28724;SDS011;43472;48.980;9.646;2023-06-10T02:37:49;9.88;;;6.85;;
28724;SDS011;43472;48.980;9.646;2023-06-10T02:42:52;13.00;;;8.80;;
28724;SDS011;43472;48.980;9.646;2023-06-10T02:47:53;10.68;;;7.28;;
28724;SDS011;43472;48.980;9.646;2023-06-10T02:52:56;8.30;;;7.30;;
28724;SDS011;43472;48.980;9.646;2023-06-10T02:57:57;7.45;;;6.28;;
28724;SDS011;43472;48.980;9.646;2023-06-10T03:03:00;6.95;;;6.15;;
28724;SDS011;43472;48.980;9.646;2023-06-10T03:08:04;8.85;;;7.00;;
28724;SDS011;43472;48.980;9.646;2023-06-10T03:13:06;7.85;;;6.55;;
28724;SDS011;43472;48.980;9.646;2023-06-10T03:18:08;9.50;;;6.25;;
28724;SDS011;43472;48.980;9.646;2023-06-10T03:23:10;7.07;;;5.93;;
28724;SDS011;43472;48.980;9.646;2023-06-10T03:28:12;8.50;;;6.40;;
28724;SDS011;43472;48.980;9.646;2023-06-10T03:33:14;8.77;;;6.90;;
28724;SDS011;43472;48.980;9.646;2023-06-10T03:38:16;7.63;;;6.10;;
28724;SDS011;43472;48.980;9.646;2023-06-10T03:43:18;8.77;;;5.47;;
28724;SDS011;43472;48.980;9.646;2023-06-10T03:48:20;10.02;;;5.78;;
28724;SDS011;43472;48.980;9.646;2023-06-10T03:53:22;10.73;;;8.32;;
28724;SDS011;43472;48.980;9.646;2023-06-10T03:58:24;8.65;;;6.90;;
28724;SDS011;43472;48.980;9.646;2023-06-10T04:03:26;10.65;;;7.38;;
28724;SDS011;43472;48.980;9.646;2023-06-10T04:08:28;8.82;;;6.78;;
28724;SDS011;43472;48.980;9.646;2023-06-10T04:13:31;10.20;;;7.88;;
28724;SDS011;43472;48.980;9.646;2023-06-10T04:18:32;8.75;;;6.80;;
28724;SDS011;43472;48.980;9.646;2023-06-10T04:23:35;9.13;;;6.32;;
28724;SDS011;43472;48.980;9.646;2023-06-10T04:28:38;10.73;;;5.90;;
28724;SDS011;43472;48.980;9.646;2023-06-10T04:33:40;7.22;;;6.03;;
28724;SDS011;43472;48.980;9.646;2023-06-10T04:38:42;11.07;;;6.45;;
28724;SDS011;43472;48.980;9.646;2023-06-10T04:43:44;6.57;;;5.25;;
28724;SDS011;43472;48.980;9.646;2023-06-10T04:48:46;7.78;;;5.97;;
28724;SDS011;43472;48.980;9.646;2023-06-10T04:53:48;6.30;;;5.57;;
28724;SDS011;43472;48.980;9.646;2023-06-10T04:58:50;7.53;;;6.20;;
28724;SDS011;43472;48.980;9.646;2023-06-10T05:03:52;7.82;;;5.80;;
28724;SDS011;43472;48.980;9.646;2023-06-10T05:08:54;6.32;;;5.50;;
28724;SDS011;43472;48.980;9.646;2023-06-10T05:13:55;7.72;;;5.78;;
28724;SDS011;43472;48.980;9.646;2023-06-10T05:18:57;7.38;;;6.15;;
28724;SDS011;43472;48.980;9.646;2023-06-10T05:23:59;6.35;;;5.47;;
28724;SDS011;43472;48.980;9.646;2023-06-10T05:29:01;9.35;;;6.10;;
28724;SDS011;43472;48.980;9.646;2023-06-10T05:34:03;10.15;;;7.32;;
28724;SDS011;43472;48.980;9.646;2023-06-10T05:39:05;7.70;;;5.80;;
28724;SDS011;43472;48.980;9.646;2023-06-10T05:44:07;7.63;;;5.95;;
28724;SDS011;43472;48.980;9.646;2023-06-10T05:49:12;8.82;;;5.97;;
28724;SDS011;43472;48.980;9.646;2023-06-10T05:54:14;16.02;;;5.50;;
28724;SDS011;43472;48.980;9.646;2023-06-10T05:59:15;6.80;;;5.28;;
28724;SDS011;43472;48.980;9.646;2023-06-10T06:04:18;6.63;;;5.07;;
28724;SDS011;43472;48.980;9.646;2023-06-10T06:09:20;7.88;;;5.97;;
28724;SDS011;43472;48.980;9.646;2023-06-10T06:14:21;5.85;;;5.05;;
28724;SDS011;43472;48.980;9.646;2023-06-10T06:19:23;6.07;;;5.20;;
28724;SDS011;43472;48.980;9.646;2023-06-10T06:24:25;6.28;;;5.03;;
28724;SDS011;43472;48.980;9.646;2023-06-10T06:29:27;6.93;;;5.43;;
28724;SDS011;43472;48.980;9.646;2023-06-10T06:34:31;4.95;;;4.45;;
28724;SDS011;43472;48.980;9.646;2023-06-10T06:39:34;6.53;;;4.97;;
28724;SDS011;43472;48.980;9.646;2023-06-10T06:44:36;5.05;;;4.53;;
28724;SDS011;43472;48.980;9.646;2023-06-10T06:49:38;7.20;;;4.78;;
28724;SDS011;43472;48.980;9.646;2023-06-10T06:54:40;8.48;;;4.55;;
28724;SDS011;43472;48.980;9.646;2023-06-10T06:59:42;6.55;;;4.85;;
28724;SDS011;43472;48.980;9.646;2023-06-10T07:04:45;5.30;;;4.80;;
28724;SDS011;43472;48.980;9.646;2023-06-10T07:09:48;5.55;;;4.60;;
28724;SDS011;43472;48.980;9.646;2023-06-10T07:14:50;8.25;;;5.00;;
28724;SDS011;43472;48.980;9.646;2023-06-10T07:19:52;8.02;;;5.43;;
28724;SDS011;43472;48.980;9.646;2023-06-10T07:24:54;5.88;;;4.75;;
28724;SDS011;43472;48.980;9.646;2023-06-10T07:29:57;5.32;;;4.82;;
28724;SDS011;43472;48.980;9.646;2023-06-10T07:34:59;6.45;;;5.22;;
28724;SDS011;43472;48.980;9.646;2023-06-10T07:40:01;5.28;;;4.47;;
28724;SDS011;43472;48.980;9.646;2023-06-10T07:45:03;6.65;;;5.15;;
28724;SDS011;43472;48.980;9.646;2023-06-10T07:50:05;7.70;;;4.50;;
28724;SDS011;43472;48.980;9.646;2023-06-10T07:55:07;6.07;;;5.00;;
28724;SDS011;43472;48.980;9.646;2023-06-10T08:00:10;6.85;;;4.47;;
28724;SDS011;43472;48.980;9.646;2023-06-10T08:05:12;5.38;;;4.40;;
28724;SDS011;43472;48.980;9.646;2023-06-10T08:10:14;5.65;;;4.20;;
28724;SDS011;43472;48.980;9.646;2023-06-10T08:15:16;6.80;;;4.25;;
28724;SDS011;43472;48.980;9.646;2023-06-10T08:20:18;6.45;;;4.65;;
28724;SDS011;43472;48.980;9.646;2023-06-10T08:25:20;6.22;;;5.00;;
28724;SDS011;43472;48.980;9.646;2023-06-10T08:30:23;7.88;;;5.68;;
28724;SDS011;43472;48.980;9.646;2023-06-10T08:35:25;5.25;;;4.63;;
28724;SDS011;43472;48.980;9.646;2023-06-10T08:40:27;8.52;;;5.07;;
28724;SDS011;43472;48.980;9.646;2023-06-10T08:45:30;6.20;;;5.25;;
28724;SDS011;43472;48.980;9.646;2023-06-10T08:50:36;6.20;;;4.72;;
28724;SDS011;43472;48.980;9.646;2023-06-10T08:55:41;7.45;;;4.72;;
28724;SDS011;43472;48.980;9.646;2023-06-10T09:00:43;4.97;;;4.40;;
28724;SDS011;43472;48.980;9.646;2023-06-10T09:05:46;6.68;;;4.88;;
28724;SDS011;43472;48.980;9.646;2023-06-10T09:10:49;6.63;;;4.65;;
28724;SDS011;43472;48.980;9.646;2023-06-10T09:15:51;6.53;;;4.95;;
28724;SDS011;43472;48.980;9.646;2023-06-10T09:20:54;5.97;;;4.30;;
28724;SDS011;43472;48.980;9.646;2023-06-10T09:25:56;5.45;;;4.25;;
28724;SDS011;43472;48.980;9.646;2023-06-10T09:31:03;6.78;;;4.70;;
28724;SDS011;43472;48.980;9.646;2023-06-10T09:36:06;6.47;;;3.90;;
28724;SDS011;43472;48.980;9.646;2023-06-10T09:41:08;4.72;;;3.80;;
28724;SDS011;43472;48.980;9.646;2023-06-10T09:46:14;4.70;;;3.72;;
28724;SDS011;43472;48.980;9.646;2023-06-10T09:51:19;8.68;;;4.03;;
28724;SDS011;43472;48.980;9.646;2023-06-10T09:56:21;7.63;;;4.80;;
28724;SDS011;43472;48.980;9.646;2023-06-10T10:01:35;4.25;;;3.70;;
28724;SDS011;43472;48.980;9.646;2023-06-10T10:06:37;5.05;;;3.80;;
28724;SDS011;43472;48.980;9.646;2023-06-10T10:11:40;5.80;;;3.20;;
28724;SDS011;43472;48.980;9.646;2023-06-10T10:16:43;6.63;;;4.18;;
28724;SDS011;43472;48.980;9.646;2023-06-10T10:21:50;6.90;;;3.42;;
28724;SDS011;43472;48.980;9.646;2023-06-10T10:26:57;5.57;;;3.75;;
28724;SDS011;43472;48.980;9.646;2023-06-10T10:32:02;4.97;;;3.53;;
28724;SDS011;43472;48.980;9.646;2023-06-10T10:37:07;6.97;;;3.47;;
28724;SDS011;43472;48.980;9.646;2023-06-10T10:42:09;5.25;;;3.42;;
28724;SDS011;43472;48.980;9.646;2023-06-10T10:47:12;6.18;;;3.67;;
28724;SDS011;43472;48.980;9.646;2023-06-10T10:52:16;5.05;;;3.65;;
28724;SDS011;43472;48.980;9.646;2023-06-10T10:57:22;7.93;;;3.30;;
28724;SDS011;43472;48.980;9.646;2023-06-10T11:07:51;4.55;;;3.65;;
28724;SDS011;43472;48.980;9.646;2023-06-10T11:12:58;5.90;;;3.67;;
28724;SDS011;43472;48.980;9.646;2023-06-10T11:23:24;6.45;;;3.20;;
28724;SDS011;43472;48.980;9.646;2023-06-10T11:28:30;3.70;;;3.05;;
28724;SDS011;43472;48.980;9.646;2023-06-10T11:33:32;2.97;;;2.70;;
28724;SDS011;43472;48.980;9.646;2023-06-10T11:38:34;5.38;;;2.67;;
28724;SDS011;43472;48.980;9.646;2023-06-10T11:43:37;3.25;;;2.95;;
28724;SDS011;43472;48.980;9.646;2023-06-10T11:49:17;6.25;;;3.40;;
28724;SDS011;43472;48.980;9.646;2023-06-10T11:54:12;5.97;;;2.58;;
28724;SDS011;43472;48.980;9.646;2023-06-10T11:59:14;3.67;;;3.03;;
28724;SDS011;43472;48.980;9.646;2023-06-10T12:04:16;3.10;;;2.60;;
28724;SDS011;43472;48.980;9.646;2023-06-10T12:09:26;5.88;;;2.97;;
28724;SDS011;43472;48.980;9.646;2023-06-10T12:19:58;5.13;;;2.90;;
28724;SDS011;43472;48.980;9.646;2023-06-10T12:25:02;3.97;;;3.20;;
28724;SDS011;43472;48.980;9.646;2023-06-10T12:30:05;3.30;;;2.95;;
28724;SDS011;43472;48.980;9.646;2023-06-10T12:35:12;4.32;;;3.03;;
28724;SDS011;43472;48.980;9.646;2023-06-10T12:40:16;3.47;;;3.17;;
28724;SDS011;43472;48.980;9.646;2023-06-10T12:45:25;3.47;;;3.08;;
28724;SDS011;43472;48.980;9.646;2023-06-10T12:50:30;3.22;;;2.92;;
28724;SDS011;43472;48.980;9.646;2023-06-10T12:55:33;7.13;;;4.00;;
28724;SDS011;43472;48.980;9.646;2023-06-10T13:00:35;20.83;;;6.70;;
28724;SDS011;43472;48.980;9.646;2023-06-10T13:05:37;20.00;;;4.45;;
28724;SDS011;43472;48.980;9.646;2023-06-10T13:10:40;10.30;;;5.15;;
28724;SDS011;43472;48.980;9.646;2023-06-10T13:15:42;3.65;;;3.15;;
28724;SDS011;43472;48.980;9.646;2023-06-10T13:20:44;4.25;;;3.75;;
28724;SDS011;43472;48.980;9.646;2023-06-10T13:25:46;3.97;;;3.55;;
28724;SDS011;43472;48.980;9.646;2023-06-10T13:30:48;5.93;;;3.55;;
28724;SDS011;43472;48.980;9.646;2023-06-10T13:35:50;4.10;;;3.58;;
28724;SDS011;43472;48.980;9.646;2023-06-10T13:40:52;4.80;;;3.35;;
28724;SDS011;43472;48.980;9.646;2023-06-10T13:45:54;4.65;;;3.65;;
28724;SDS011;43472;48.980;9.646;2023-06-10T13:50:56;6.18;;;3.40;;
28724;SDS011;43472;48.980;9.646;2023-06-10T13:55:58;5.53;;;3.58;;
28724;SDS011;43472;48.980;9.646;2023-06-10T14:01:01;6.85;;;3.67;;
28724;SDS011;43472;48.980;9.646;2023-06-10T14:06:03;7.75;;;4.25;;
28724;SDS011;43472;48.980;9.646;2023-06-10T14:11:05;7.05;;;4.85;;
28724;SDS011;43472;48.980;9.646;2023-06-10T14:16:07;12.63;;;7.63;;
28724;SDS011;43472;48.980;9.646;2023-06-10T14:21:09;6.80;;;5.20;;
28724;SDS011;43472;48.980;9.646;2023-06-10T14:26:11;6.53;;;3.78;;
28724;SDS011;43472;48.980;9.646;2023-06-10T14:31:13;9.27;;;4.38;;
28724;SDS011;43472;48.980;9.646;2023-06-10T14:36:15;4.22;;;3.22;;
28724;SDS011;43472;48.980;9.646;2023-06-10T14:41:17;3.50;;;3.20;;
28724;SDS011;43472;48.980;9.646;2023-06-10T14:46:20;5.07;;;3.15;;
28724;SDS011;43472;48.980;9.646;2023-06-10T14:51:22;5.25;;;3.53;;
28724;SDS011;43472;48.980;9.646;2023-06-10T14:56:24;5.28;;;3.20;;
28724;SDS011;43472;48.980;9.646;2023-06-10T15:01:27;3.58;;;3.28;;
28724;SDS011;43472;48.980;9.646;2023-06-10T15:06:28;4.22;;;2.60;;
28724;SDS011;43472;48.980;9.646;2023-06-10T15:11:31;3.40;;;2.83;;
28724;SDS011;43472;48.980;9.646;2023-06-10T15:16:33;5.60;;;2.58;;
28724;SDS011;43472;48.980;9.646;2023-06-10T15:21:34;3.55;;;2.90;;
28724;SDS011;43472;48.980;9.646;2023-06-10T15:26:37;3.22;;;2.92;;
28724;SDS011;43472;48.980;9.646;2023-06-10T15:31:39;3.55;;;3.22;;
28724;SDS011;43472;48.980;9.646;2023-06-10T15:36:41;3.17;;;2.72;;
28724;SDS011;43472;48.980;9.646;2023-06-10T15:41:43;3.10;;;2.35;;
28724;SDS011;43472;48.980;9.646;2023-06-10T15:46:45;2.92;;;2.60;;
28724;SDS011;43472;48.980;9.646;2023-06-10T15:51:47;3.00;;;2.70;;
28724;SDS011;43472;48.980;9.646;2023-06-10T15:56:51;3.45;;;3.10;;
28724;SDS011;43472;48.980;9.646;2023-06-10T16:01:53;3.58;;;2.80;;
28724;SDS011;43472;48.980;9.646;2023-06-10T16:06:55;3.55;;;3.00;;
28724;SDS011;43472;48.980;9.646;2023-06-10T16:11:58;3.00;;;2.67;;
28724;SDS011;43472;48.980;9.646;2023-06-10T16:17:00;3.60;;;3.28;;
28724;SDS011;43472;48.980;9.646;2023-06-10T16:22:02;4.15;;;3.75;;
28724;SDS011;43472;48.980;9.646;2023-06-10T16:27:04;5.70;;;3.65;;
28724;SDS011;43472;48.980;9.646;2023-06-10T16:32:08;3.90;;;3.53;;
28724;SDS011;43472;48.980;9.646;2023-06-10T16:37:10;3.63;;;3.33;;
28724;SDS011;43472;48.980;9.646;2023-06-10T16:42:12;6.30;;;3.47;;
28724;SDS011;43472;48.980;9.646;2023-06-10T16:47:14;4.00;;;3.63;;
28724;SDS011;43472;48.980;9.646;2023-06-10T16:52:16;4.15;;;3.78;;
28724;SDS011;43472;48.980;9.646;2023-06-10T16:57:18;5.03;;;3.40;;
28724;SDS011;43472;48.980;9.646;2023-06-10T17:02:21;4.63;;;3.38;;
28724;SDS011;43472;48.980;9.646;2023-06-10T17:07:23;5.60;;;3.50;;
28724;SDS011;43472;48.980;9.646;2023-06-10T17:12:24;3.60;;;3.30;;
28724;SDS011;43472;48.980;9.646;2023-06-10T17:17:27;3.50;;;3.20;;
28724;SDS011;43472;48.980;9.646;2023-06-10T17:22:29;5.43;;;3.30;;
28724;SDS011;43472;48.980;9.646;2023-06-10T17:27:31;7.45;;;3.55;;
28724;SDS011;43472;48.980;9.646;2023-06-10T17:32:34;3.95;;;3.60;;
28724;SDS011;43472;48.980;9.646;2023-06-10T17:37:38;3.38;;;3.08;;
28724;SDS011;43472;48.980;9.646;2023-06-10T17:42:40;5.65;;;3.30;;
28724;SDS011;43472;48.980;9.646;2023-06-10T17:47:42;4.20;;;3.42;;
28724;SDS011;43472;48.980;9.646;2023-06-10T17:52:43;3.97;;;2.97;;
28724;SDS011;43472;48.980;9.646;2023-06-10T17:57:45;3.42;;;2.97;;
28724;SDS011;43472;48.980;9.646;2023-06-10T18:02:47;2.92;;;2.63;;
28724;SDS011;43472;48.980;9.646;2023-06-10T18:07:49;4.15;;;3.50;;
28724;SDS011;43472;48.980;9.646;2023-06-10T18:12:52;8.55;;;3.65;;
28724;SDS011;43472;48.980;9.646;2023-06-10T18:17:54;10.32;;;3.65;;
28724;SDS011;43472;48.980;9.646;2023-06-10T18:22:56;4.35;;;2.80;;
28724;SDS011;43472;48.980;9.646;2023-06-10T18:27:58;5.38;;;3.85;;
28724;SDS011;43472;48.980;9.646;2023-06-10T18:33:00;4.90;;;3.28;;
28724;SDS011;43472;48.980;9.646;2023-06-10T18:38:02;8.40;;;5.57;;
28724;SDS011;43472;48.980;9.646;2023-06-10T18:43:04;14.18;;;7.95;;
28724;SDS011;43472;48.980;9.646;2023-06-10T18:48:06;9.88;;;6.32;;
28724;SDS011;43472;48.980;9.646;2023-06-10T18:53:08;4.05;;;3.67;;
28724;SDS011;43472;48.980;9.646;2023-06-10T18:58:09;4.10;;;3.70;;
28724;SDS011;43472;48.980;9.646;2023-06-10T19:03:11;4.78;;;3.65;;
28724;SDS011;43472;48.980;9.646;2023-06-10T19:08:14;5.43;;;3.80;;
28724;SDS011;43472;48.980;9.646;2023-06-10T19:13:15;18.63;;;9.38;;
28724;SDS011;43472;48.980;9.646;2023-06-10T19:18:17;25.23;;;12.13;;
28724;SDS011;43472;48.980;9.646;2023-06-10T19:23:19;5.70;;;4.78;;
28724;SDS011;43472;48.980;9.646;2023-06-10T19:28:22;22.83;;;13.52;;
28724;SDS011;43472;48.980;9.646;2023-06-10T19:33:24;11.13;;;6.22;;
28724;SDS011;43472;48.980;9.646;2023-06-10T19:38:26;8.15;;;5.50;;
28724;SDS011;43472;48.980;9.646;2023-06-10T19:43:29;5.72;;;4.28;;
28724;SDS011;43472;48.980;9.646;2023-06-10T19:48:31;6.47;;;4.22;;
28724;SDS011;43472;48.980;9.646;2023-06-10T19:53:34;5.95;;;3.95;;
28724;SDS011;43472;48.980;9.646;2023-06-10T19:58:36;5.85;;;3.60;;
28724;SDS011;43472;48.980;9.646;2023-06-10T20:03:38;5.35;;;3.63;;
28724;SDS011;43472;48.980;9.646;2023-06-10T20:08:40;4.20;;;2.90;;
28724;SDS011;43472;48.980;9.646;2023-06-10T20:13:42;4.75;;;3.85;;
28724;SDS011;43472;48.980;9.646;2023-06-10T20:18:43;6.53;;;3.63;;
28724;SDS011;43472;48.980;9.646;2023-06-10T20:23:50;5.30;;;3.22;;
28724;SDS011;43472;48.980;9.646;2023-06-10T20:28:54;3.65;;;2.90;;
28724;SDS011;43472;48.980;9.646;2023-06-10T20:33:56;9.63;;;5.95;;
28724;SDS011;43472;48.980;9.646;2023-06-10T20:38:58;6.28;;;3.60;;
28724;SDS011;43472;48.980;9.646;2023-06-10T20:44:00;5.55;;;3.13;;
28724;SDS011;43472;48.980;9.646;2023-06-10T20:49:02;3.75;;;3.03;;
28724;SDS011;43472;48.980;9.646;2023-06-10T20:54:03;3.88;;;3.33;;
28724;SDS011;43472;48.980;9.646;2023-06-10T20:59:05;3.22;;;2.80;;
28724;SDS011;43472;48.980;9.646;2023-06-10T21:04:07;3.10;;;2.80;;
28724;SDS011;43472;48.980;9.646;2023-06-10T21:09:09;5.53;;;3.65;;
28724;SDS011;43472;48.980;9.646;2023-06-10T21:14:12;4.15;;;3.40;;
28724;SDS011;43472;48.980;9.646;2023-06-10T21:19:14;3.85;;;3.28;;
28724;SDS011;43472;48.980;9.646;2023-06-10T21:24:16;4.90;;;3.17;;
28724;SDS011;43472;48.980;9.646;2023-06-10T21:29:18;6.00;;;3.28;;
28724;SDS011;43472;48.980;9.646;2023-06-10T21:34:20;3.85;;;3.00;;
28724;SDS011;43472;48.980;9.646;2023-06-10T21:39:22;5.30;;;3.20;;
28724;SDS011;43472;48.980;9.646;2023-06-10T21:44:24;5.50;;;3.65;;
28724;SDS011;43472;48.980;9.646;2023-06-10T21:49:25;4.32;;;3.50;;
28724;SDS011;43472;48.980;9.646;2023-06-10T21:54:27;6.82;;;3.72;;
28724;SDS011;43472;48.980;9.646;2023-06-10T21:59:29;7.32;;;4.03;;
28724;SDS011;43472;48.980;9.646;2023-06-10T22:04:32;6.72;;;4.05;;
28724;SDS011;43472;48.980;9.646;2023-06-10T22:09:34;6.20;;;4.25;;
28724;SDS011;43472;48.980;9.646;2023-06-10T22:14:36;6.65;;;4.55;;
28724;SDS011;43472;48.980;9.646;2023-06-10T22:19:38;5.20;;;3.85;;
28724;SDS011;43472;48.980;9.646;2023-06-10T22:24:42;5.43;;;4.10;;
28724;SDS011;43472;48.980;9.646;2023-06-10T22:29:44;6.63;;;4.38;;
28724;SDS011;43472;48.980;9.646;2023-06-10T22:34:46;10.15;;;4.80;;
28724;SDS011;43472;48.980;9.646;2023-06-10T22:39:48;5.00;;;4.28;;
28724;SDS011;43472;48.980;9.646;2023-06-10T22:44:50;25.63;;;5.57;;
28724;SDS011;43472;48.980;9.646;2023-06-10T22:49:52;6.03;;;4.47;;
28724;SDS011;43472;48.980;9.646;2023-06-10T22:54:55;5.18;;;4.50;;
28724;SDS011;43472;48.980;9.646;2023-06-10T22:59:57;6.28;;;5.20;;
28724;SDS011;43472;48.980;9.646;2023-06-10T23:04:59;7.82;;;4.55;;
28724;SDS011;43472;48.980;9.646;2023-06-10T23:10:01;7.07;;;4.43;;
28724;SDS011;43472;48.980;9.646;2023-06-10T23:15:04;4.68;;;4.10;;
28724;SDS011;43472;48.980;9.646;2023-06-10T23:20:06;4.90;;;3.90;;
28724;SDS011;43472;48.980;9.646;2023-06-10T23:25:10;5.68;;;4.05;;
28724;SDS011;43472;48.980;9.646;2023-06-10T23:30:12;6.90;;;4.30;;
28724;SDS011;43472;48.980;9.646;2023-06-10T23:35:14;5.82;;;4.45;;
28724;SDS011;43472;48.980;9.646;2023-06-10T23:40:20;5.30;;;3.83;;
28724;SDS011;43472;48.980;9.646;2023-06-10T23:45:23;8.82;;;4.75;;
28724;SDS011;43472;48.980;9.646;2023-06-10T23:50:25;4.40;;;3.72;;
28724;SDS011;43472;48.980;9.646;2023-06-10T23:55:27;5.18;;;3.53;;
